Scandia, Washington
Current Conditions -  °F | °C
As of 10:15 PM on Thursday 18 Dec 2014 (Local Time) from KPWT Reporting Station
Overcast Overcast  
Wind Chill: 43°   Ceiling: 1400
Heat Index: 48°   Visibility: 10mi
Dew Point: 48°   Wind: 14mph
Humidity: 100%   Direction: 180°S
Pressure: 29.76"   Gusts: 23mph
Location:  47.7571°N, 122.623°W
Report Text: KPWT 190615Z AUTO 18012G20KT 10SM SCT006 BKN014 OVC047 09/09 A2976 RMK AO1 P0002
Loading
Personal Weather Stations






























Interactive Weather Map New forecast layout! Learn more

10-Day Weather Forecast

Advertisements
Track Severe Weather on mobile